Time;durP1;ratioP1;P1;durP2;ratioP2;P2;SDS_P1;SDS_P2;PMS_P1;PMS_P2;Temp;Humidity;BMP_temperature;BMP_pressure;BME280_temperature;BME280_humidity;BME280_pressure;Samples;Min_cycle;Max_cycle;Signal;HPM_P1;HPM_P2
2021/07/11 00:00:18;;;;;;;5.00;4.80;;;17.10;99.90;;;;;;5033196;28;20180;-69
2021/07/11 00:02:44;;;;;;;5.00;4.80;;;17.00;99.90;;;;;;5029969;28;20175;-69
2021/07/11 00:05:12;;;;;;;5.27;5.07;;;17.00;99.90;;;;;;5033143;28;20219;-69
2021/07/11 00:07:38;;;;;;;5.40;5.20;;;16.90;99.90;;;;;;5032339;28;20186;-69
2021/07/11 00:10:07;;;;;;;4.80;4.60;;;16.90;99.90;;;;;;5033258;28;20168;-69
2021/07/11 00:12:33;;;;;;;5.10;4.90;;;16.90;99.90;;;;;;5018821;28;20175;-69
2021/07/11 00:14:58;;;;;;;5.00;4.80;;;16.80;99.90;;;;;;5013644;28;20207;-68
2021/07/11 00:17:24;;;;;;;4.77;4.57;;;16.80;99.90;;;;;;5012873;28;20637;-69
2021/07/11 00:19:50;;;;;;;5.20;5.00;;;16.80;99.90;;;;;;5012396;28;20294;-66
2021/07/11 00:22:16;;;;;;;5.00;4.80;;;16.90;99.90;;;;;;5013095;28;20176;-69
2021/07/11 00:24:43;;;;;;;5.17;4.97;;;16.90;99.90;;;;;;5017442;28;20606;-69
2021/07/11 00:27:11;;;;;;;5.33;5.13;;;16.90;99.90;;;;;;5032431;28;20195;-69
2021/07/11 00:29:36;;;;;;;4.90;4.70;;;17.00;99.90;;;;;;5030985;28;20167;-68
2021/07/11 00:32:02;;;;;;;5.73;5.30;;;17.00;99.90;;;;;;5032454;28;20167;-68
2021/07/11 00:34:28;;;;;;;5.53;5.33;;;16.90;99.90;;;;;;5030627;28;20191;-67
2021/07/11 00:36:53;;;;;;;5.00;4.80;;;16.80;99.90;;;;;;5012699;28;20263;-67
2021/07/11 00:39:19;;;;;;;5.17;4.97;;;16.80;99.90;;;;;;5012729;28;20176;-68
2021/07/11 00:41:45;;;;;;;5.30;5.10;;;16.70;99.90;;;;;;5032361;28;20183;-69
2021/07/11 00:44:10;;;;;;;5.50;5.30;;;16.80;99.90;;;;;;5031392;28;20226;-68
2021/07/11 00:46:37;;;;;;;5.23;5.03;;;16.80;99.90;;;;;;5016049;28;20178;-69
2021/07/11 00:49:06;;;;;;;5.40;5.20;;;16.90;99.90;;;;;;5031004;28;20176;-69
2021/07/11 00:51:33;;;;;;;5.07;4.87;;;17.00;99.90;;;;;;5015232;28;20215;-67
2021/07/11 00:53:59;;;;;;;5.37;5.17;;;16.90;99.90;;;;;;5012463;28;20172;-67
2021/07/11 00:56:24;;;;;;;5.40;5.20;;;16.70;99.90;;;;;;5014942;28;20188;-67
2021/07/11 00:58:50;;;;;;;5.70;5.50;;;16.80;99.90;;;;;;5030847;28;20664;-69
2021/07/11 01:01:29;;;;;;;5.53;5.27;;;16.70;99.90;;;;;;5018129;28;20180;-69
2021/07/11 01:04:01;;;;;;;5.63;5.43;;;16.70;99.90;;;;;;5012352;28;20238;-68
2021/07/11 01:06:28;;;;;;;5.80;5.60;;;16.80;99.90;;;;;;5025350;28;20237;-67
2021/07/11 01:09:02;;;;;;;5.50;5.30;;;16.70;99.90;;;;;;5032070;28;20214;-67
2021/07/11 01:11:32;;;;;;;5.33;5.13;;;16.70;99.90;;;;;;5017560;28;20190;-67
2021/07/11 01:13:58;;;;;;;5.33;5.13;;;16.70;99.90;;;;;;5010987;28;20176;-69
2021/07/11 01:16:27;;;;;;;5.80;5.50;;;16.70;99.90;;;;;;5023693;28;20657;-69
2021/07/11 01:18:57;;;;;;;5.40;5.20;;;16.70;99.90;;;;;;5031762;28;20171;-69
2021/07/11 01:21:24;;;;;;;5.60;5.40;;;16.80;99.90;;;;;;5019069;28;20267;-69
2021/07/11 01:24:05;;;;;;;5.30;5.10;;;16.80;99.90;;;;;;5012095;28;20410;-70
2021/07/11 01:26:33;;;;;;;5.77;5.57;;;16.70;99.90;;;;;;5013045;28;20229;-69
2021/07/11 01:29:00;;;;;;;6.57;6.17;;;16.60;99.90;;;;;;5010736;28;20187;-69
2021/07/11 01:31:26;;;;;;;5.47;5.27;;;16.60;99.90;;;;;;5027999;28;20262;-68
2021/07/11 01:33:53;;;;;;;6.67;6.37;;;16.50;99.90;;;;;;5031744;28;20697;-70
2021/07/11 01:36:20;;;;;;;5.03;4.83;;;16.60;99.90;;;;;;5015447;28;20681;-69
2021/07/11 01:38:47;;;;;;;5.57;5.37;;;16.40;99.90;;;;;;5010734;28;20171;-69
2021/07/11 01:41:14;;;;;;;6.07;5.77;;;16.40;99.90;;;;;;5025147;28;20184;-69
2021/07/11 01:43:41;;;;;;;5.60;5.40;;;16.40;99.90;;;;;;5031640;28;20203;-69
2021/07/11 01:46:08;;;;;;;5.10;4.90;;;16.30;99.90;;;;;;5029546;28;20599;-69
2021/07/11 01:48:35;;;;;;;5.10;4.90;;;16.40;99.90;;;;;;5031610;28;20171;-69
2021/07/11 01:51:02;;;;;;;5.37;5.17;;;16.30;99.90;;;;;;5026530;28;20210;-68
2021/07/11 01:53:31;;;;;;;5.97;5.60;;;16.40;99.90;;;;;;5030897;28;20579;-69
2021/07/11 01:55:58;;;;;;;5.60;5.40;;;16.40;99.90;;;;;;5014436;28;20227;-69
2021/07/11 01:58:24;;;;;;;5.10;4.90;;;16.60;99.90;;;;;;5015695;28;20176;-69
2021/07/11 02:00:53;;;;;;;4.77;4.57;;;16.60;99.90;;;;;;5031110;28;20532;-69
2021/07/11 02:03:22;;;;;;;5.57;5.07;;;16.60;99.90;;;;;;5034072;28;20276;-69
2021/07/11 02:05:48;;;;;;;6.63;6.13;;;16.60;99.90;;;;;;5020339;28;20206;-69
2021/07/11 02:08:15;;;;;;;5.10;4.90;;;16.60;99.90;;;;;;5015454;28;20165;-69
2021/07/11 02:10:44;;;;;;;5.00;4.80;;;16.50;99.90;;;;;;5028509;28;20263;-69
2021/07/11 02:13:24;;;;;;;5.10;4.90;;;16.60;99.90;;;;;;5033305;28;20229;-69
2021/07/11 02:15:52;;;;;;;5.97;5.47;;;16.50;99.90;;;;;;5014036;28;20199;-69
2021/07/11 02:18:25;;;;;;;6.80;5.73;;;16.60;99.90;;;;;;5015275;28;20183;-67
2021/07/11 02:20:52;;;;;;;5.00;4.80;;;16.60;99.90;;;;;;5033896;28;20187;-67
2021/07/11 02:23:20;;;;;;;4.90;4.70;;;16.60;99.90;;;;;;5031889;28;20204;-68
2021/07/11 02:25:46;;;;;;;5.43;5.03;;;16.60;99.90;;;;;;5013926;28;20199;-69
2021/07/11 02:28:14;;;;;;;5.50;5.30;;;16.60;99.90;;;;;;5013973;28;20199;-69
2021/07/11 02:30:41;;;;;;;5.20;5.00;;;16.60;99.90;;;;;;5033712;28;20171;-69
2021/07/11 02:33:13;;;;;;;4.90;4.70;;;16.60;99.90;;;;;;5035012;28;20198;-69
2021/07/11 02:35:44;;;;;;;4.90;4.70;;;16.70;99.90;;;;;;5013640;28;20200;-69
2021/07/11 02:38:14;;;;;;;4.93;4.73;;;16.80;99.90;;;;;;5013641;28;20180;-69
2021/07/11 02:40:40;;;;;;;4.70;4.50;;;16.90;99.90;;;;;;5014127;28;20180;-67
2021/07/11 02:43:10;;;;;;;4.60;4.40;;;16.90;99.90;;;;;;5013543;28;20196;-67
2021/07/11 02:45:37;;;;;;;4.90;4.70;;;16.90;99.90;;;;;;5031567;28;20207;-67
2021/07/11 02:48:06;;;;;;;7.03;6.23;;;16.90;99.90;;;;;;5034521;28;20178;-67
2021/07/11 02:50:34;;;;;;;6.00;5.70;;;16.90;99.90;;;;;;5015781;28;20176;-67
2021/07/11 02:53:01;;;;;;;5.50;5.30;;;16.90;99.90;;;;;;5027103;28;20202;-67
2021/07/11 02:55:31;;;;;;;5.93;5.70;;;16.90;99.90;;;;;;5033202;28;20192;-67
2021/07/11 02:58:04;;;;;;;5.60;5.30;;;16.90;99.90;;;;;;5021232;28;20180;-67
2021/07/11 03:00:30;;;;;;;6.90;6.60;;;16.70;99.90;;;;;;5013194;28;20222;-67
2021/07/11 03:02:57;;;;;;;5.60;5.40;;;16.70;99.90;;;;;;5025220;28;20184;-67
2021/07/11 03:05:24;;;;;;;5.83;5.53;;;16.60;99.90;;;;;;5034192;28;20203;-69
2021/07/11 03:07:51;;;;;;;5.67;5.47;;;16.50;99.90;;;;;;5021932;28;20264;-69
2021/07/11 03:10:17;;;;;;;5.97;5.67;;;16.50;99.90;;;;;;5014332;28;20176;-69
2021/07/11 03:12:46;;;;;;;5.70;5.50;;;16.40;99.90;;;;;;5019217;28;20176;-67
2021/07/11 03:15:12;;;;;;;5.10;4.90;;;16.50;99.90;;;;;;5034098;28;20227;-67
2021/07/11 03:17:39;;;;;;;5.87;5.60;;;16.50;99.90;;;;;;5026093;28;20667;-69
2021/07/11 03:20:06;;;;;;;5.33;5.13;;;16.50;99.90;;;;;;5013124;28;20211;-68
2021/07/11 03:22:35;;;;;;;5.30;5.10;;;16.50;99.90;;;;;;5018175;28;20180;-69
2021/07/11 03:25:07;;;;;;;5.30;5.10;;;16.50;99.90;;;;;;5032518;28;20231;-66
2021/07/11 03:27:33;;;;;;;5.27;5.07;;;16.50;99.90;;;;;;5028435;28;20262;-68
2021/07/11 03:30:13;;;;;;;5.90;5.60;;;16.50;99.90;;;;;;5014571;28;20172;-69
2021/07/11 03:32:55;;;;;;;5.00;4.80;;;16.40;99.90;;;;;;5018759;28;20257;-69
2021/07/11 03:35:29;;;;;;;5.17;4.97;;;16.40;99.90;;;;;;5033750;28;20245;-69
2021/07/11 03:37:56;;;;;;;5.13;4.93;;;16.50;99.90;;;;;;5026253;28;20723;-69
2021/07/11 03:40:26;;;;;;;5.27;4.97;;;16.50;99.90;;;;;;5013980;28;20164;-69
2021/07/11 03:42:54;;;;;;;5.03;4.83;;;16.50;99.90;;;;;;5018384;28;20533;-66
2021/07/11 03:45:21;;;;;;;5.13;4.93;;;16.60;99.90;;;;;;5032266;28;20708;-69
2021/07/11 03:47:54;;;;;;;5.10;4.90;;;16.60;99.90;;;;;;5029811;28;20208;-69
2021/07/11 03:50:25;;;;;;;5.20;5.00;;;16.50;99.90;;;;;;5012335;28;20250;-69
2021/07/11 03:53:12;;;;;;;5.33;5.13;;;16.60;99.90;;;;;;5016668;28;20254;-68
2021/07/11 03:55:42;;;;;;;6.80;6.50;;;16.60;99.90;;;;;;5032912;28;20203;-69
2021/07/11 03:58:08;;;;;;;6.00;5.70;;;16.40;99.90;;;;;;5026956;28;20223;-69
2021/07/11 04:00:35;;;;;;;5.23;5.03;;;16.40;99.90;;;;;;5013550;28;20164;-67
2021/07/11 04:03:03;;;;;;;5.07;4.87;;;16.40;99.90;;;;;;5016517;28;20171;-66
2021/07/11 04:05:33;;;;;;;5.80;5.50;;;16.50;99.90;;;;;;5032671;28;20191;-68
2021/07/11 04:07:59;;;;;;;5.60;5.40;;;16.50;99.90;;;;;;5028995;28;22066;-69
2021/07/11 04:10:26;;;;;;;5.40;5.20;;;16.50;99.90;;;;;;5011952;28;20176;-70
2021/07/11 04:12:53;;;;;;;5.70;5.50;;;16.40;99.90;;;;;;5020799;28;20171;-69
2021/07/11 04:15:19;;;;;;;5.33;5.13;;;16.40;99.90;;;;;;5031663;28;20206;-70
2021/07/11 04:17:50;;;;;;;6.03;5.83;;;16.40;99.90;;;;;;5025092;28;20658;-69
2021/07/11 04:20:17;;;;;;;6.23;6.03;;;16.40;99.90;;;;;;5013197;28;20179;-69
2021/07/11 04:22:45;;;;;;;6.40;5.93;;;16.40;99.90;;;;;;5017347;28;20545;-69
2021/07/11 04:25:12;;;;;;;5.40;5.20;;;16.40;99.90;;;;;;5032492;28;20211;-69
2021/07/11 04:27:39;;;;;;;6.03;5.83;;;16.50;99.90;;;;;;5027251;28;20653;-70
2021/07/11 04:30:06;;;;;;;6.93;6.63;;;16.40;99.90;;;;;;5012952;28;20192;-69
2021/07/11 04:32:34;;;;;;;5.80;5.60;;;16.40;99.90;;;;;;5016266;28;20183;-70
2021/07/11 04:34:59;;;;;;;5.83;5.63;;;16.40;99.90;;;;;;5032658;28;20195;-69
2021/07/11 04:37:25;;;;;;;4.90;4.70;;;16.50;99.90;;;;;;5030149;28;20760;-69
2021/07/11 04:39:51;;;;;;;5.40;5.20;;;16.50;99.90;;;;;;5012925;28;20552;-69
2021/07/11 04:42:17;;;;;;;6.40;6.10;;;16.50;99.90;;;;;;5011373;28;20211;-69
2021/07/11 04:44:45;;;;;;;5.20;5.00;;;16.50;99.90;;;;;;5012900;28;20208;-69
2021/07/11 04:47:14;;;;;;;6.03;5.73;;;16.50;99.90;;;;;;5011208;28;20183;-69
2021/07/11 04:49:40;;;;;;;5.63;5.43;;;16.60;99.90;;;;;;5030202;28;20225;-69
2021/07/11 04:52:07;;;;;;;5.63;5.40;;;16.60;99.90;;;;;;5031733;28;20586;-69
2021/07/11 04:54:33;;;;;;;6.10;5.90;;;16.60;99.90;;;;;;5014740;28;20670;-68
2021/07/11 04:56:59;;;;;;;5.83;5.63;;;16.60;99.90;;;;;;5012279;28;20646;-69
2021/07/11 04:59:25;;;;;;;5.90;5.70;;;16.70;99.90;;;;;;5027757;28;20210;-69
2021/07/11 05:01:51;;;;;;;5.30;5.10;;;16.70;99.90;;;;;;5032230;28;20550;-69
2021/07/11 05:04:16;;;;;;;5.30;5.10;;;16.70;99.90;;;;;;5016768;28;20643;-69
2021/07/11 05:06:42;;;;;;;5.30;5.10;;;16.80;99.90;;;;;;5012205;28;20251;-69
2021/07/11 05:09:08;;;;;;;6.17;5.87;;;16.80;99.90;;;;;;5023860;28;20207;-69
2021/07/11 05:11:34;;;;;;;4.93;4.73;;;16.80;99.90;;;;;;5032053;28;20199;-69
2021/07/11 05:14:00;;;;;;;4.97;4.77;;;16.80;99.90;;;;;;5021761;28;20184;-69
2021/07/11 05:16:25;;;;;;;5.27;4.97;;;16.90;99.90;;;;;;5010736;28;20184;-69
2021/07/11 05:18:51;;;;;;;5.40;5.10;;;16.90;99.90;;;;;;5020283;28;20633;-67
2021/07/11 05:21:16;;;;;;;5.53;5.33;;;17.00;99.90;;;;;;5031777;28;20214;-67
2021/07/11 05:23:42;;;;;;;6.77;6.47;;;17.00;99.90;;;;;;5025348;28;20215;-67
2021/07/11 05:26:08;;;;;;;5.63;5.40;;;17.10;99.90;;;;;;5010559;28;20211;-67
2021/07/11 05:28:33;;;;;;;7.10;6.43;;;17.10;99.90;;;;;;5014953;28;20180;-67
2021/07/11 05:30:59;;;;;;;6.17;5.87;;;17.10;99.90;;;;;;5030179;28;20245;-67
2021/07/11 05:33:25;;;;;;;5.83;5.63;;;17.20;99.90;;;;;;5028949;28;20198;-67
2021/07/11 05:35:51;;;;;;;5.57;5.30;;;17.20;99.90;;;;;;5030226;28;20286;-69
2021/07/11 05:38:17;;;;;;;6.20;5.90;;;17.20;99.90;;;;;;5030593;28;20183;-67
2021/07/11 05:40:42;;;;;;;6.10;5.80;;;17.20;99.90;;;;;;5010798;28;20302;-67
2021/07/11 05:43:08;;;;;;;5.63;5.43;;;17.10;99.90;;;;;;5011402;28;20195;-67
2021/07/11 05:45:34;;;;;;;15.83;14.20;;;17.10;99.90;;;;;;5010677;28;20303;-67
2021/07/11 05:48:00;;;;;;;26.53;19.07;;;17.10;99.90;;;;;;5010715;28;20623;-67
2021/07/11 05:50:26;;;;;;;22.33;18.53;;;17.10;99.90;;;;;;5011817;28;20180;-67
2021/07/11 05:52:51;;;;;;;22.97;19.83;;;17.20;99.90;;;;;;5011991;28;20246;-67
2021/07/11 05:55:17;;;;;;;24.03;19.67;;;17.20;99.90;;;;;;5015758;28;20198;-67
2021/07/11 05:57:42;;;;;;;29.03;20.13;;;17.30;99.90;;;;;;5009328;28;20188;-67
2021/07/11 06:00:11;;;;;;;26.03;20.20;;;17.30;99.90;;;;;;5011911;28;20172;-67
2021/07/11 06:02:37;;;;;;;26.40;20.80;;;17.30;99.90;;;;;;5020713;28;20230;-69
2021/07/11 06:05:04;;;;;;;26.20;20.80;;;17.30;99.90;;;;;;5030000;28;20215;-69
2021/07/11 06:07:29;;;;;;;26.27;20.57;;;17.40;99.90;;;;;;5029942;28;20176;-69
2021/07/11 06:09:57;;;;;;;25.10;20.20;;;17.50;99.90;;;;;;5029561;28;20823;-69
2021/07/11 06:12:23;;;;;;;24.03;19.97;;;17.60;99.90;;;;;;5010272;28;20208;-69
2021/07/11 06:14:49;;;;;;;25.40;19.40;;;17.50;99.90;;;;;;5011614;28;20232;-67
2021/07/11 06:17:15;;;;;;;29.13;20.47;;;17.60;99.90;;;;;;5028401;28;20221;-69
2021/07/11 06:19:40;;;;;;;23.73;19.40;;;17.60;99.90;;;;;;5030059;28;20180;-69
2021/07/11 06:22:06;;;;;;;30.97;20.10;;;17.60;99.90;;;;;;5030862;28;20175;-69
2021/07/11 06:24:32;;;;;;;29.10;20.47;;;17.50;99.90;;;;;;5030872;28;20214;-69
2021/07/11 06:26:58;;;;;;;30.13;19.83;;;17.40;99.90;;;;;;5014673;28;20267;-69
2021/07/11 06:29:23;;;;;;;27.43;21.43;;;17.50;99.90;;;;;;5011477;28;20223;-69
2021/07/11 06:31:49;;;;;;;27.10;19.67;;;17.60;99.90;;;;;;5024783;28;20171;-69
2021/07/11 06:34:14;;;;;;;27.07;19.27;;;17.70;99.90;;;;;;5031134;28;20222;-67
2021/07/11 06:36:40;;;;;;;28.00;20.70;;;17.70;99.90;;;;;;5019704;28;20654;-69
2021/07/11 06:39:06;;;;;;;25.17;19.40;;;17.70;99.90;;;;;;5010009;28;20188;-69
2021/07/11 06:41:32;;;;;;;28.97;20.17;;;17.60;99.90;;;;;;5010706;28;20188;-69
2021/07/11 06:43:58;;;;;;;23.77;19.43;;;17.70;99.90;;;;;;5012843;28;20578;-69
2021/07/11 06:46:23;;;;;;;23.77;18.50;;;17.80;99.90;;;;;;5013407;28;20238;-67
2021/07/11 06:48:49;;;;;;;23.77;19.07;;;17.80;99.90;;;;;;5013516;28;20184;-67
2021/07/11 06:51:15;;;;;;;26.93;19.83;;;17.80;99.90;;;;;;5014759;28;20183;-67
2021/07/11 06:53:41;;;;;;;23.00;19.20;;;17.70;99.90;;;;;;5013541;28;20246;-67
2021/07/11 06:56:07;;;;;;;27.37;20.43;;;17.80;99.90;;;;;;5014148;28;20204;-67
2021/07/11 06:58:33;;;;;;;25.07;18.70;;;17.80;99.90;;;;;;5014642;28;20172;-68
2021/07/11 07:00:58;;;;;;;28.07;21.17;;;17.80;99.90;;;;;;5014839;28;20184;-66
2021/07/11 07:03:24;;;;;;;24.07;18.70;;;17.80;99.90;;;;;;5014682;28;20820;-67
2021/07/11 07:05:50;;;;;;;24.00;18.83;;;17.80;99.90;;;;;;5016896;28;20674;-67
2021/07/11 07:08:16;;;;;;;24.20;18.53;;;17.80;99.90;;;;;;5034169;28;20227;-67
2021/07/11 07:10:42;;;;;;;22.17;17.50;;;17.70;99.90;;;;;;5033504;28;20668;-67
2021/07/11 07:13:07;;;;;;;21.40;18.33;;;17.80;99.90;;;;;;5034071;28;20176;-67
2021/07/11 07:15:34;;;;;;;21.60;19.13;;;17.90;99.90;;;;;;5032872;28;20200;-68
2021/07/11 07:17:59;;;;;;;24.57;19.20;;;17.90;99.90;;;;;;5015041;28;20187;-66
2021/07/11 07:20:25;;;;;;;25.33;18.27;;;18.00;99.90;;;;;;5012976;28;20663;-67
2021/07/11 07:22:50;;;;;;;21.67;17.27;;;18.10;99.90;;;;;;5029278;28;20179;-66
2021/07/11 07:25:17;;;;;;;23.63;19.20;;;18.10;99.90;;;;;;5033847;28;20203;-68
2021/07/11 07:27:45;;;;;;;20.70;17.20;;;18.20;99.90;;;;;;5018012;28;20176;-69
2021/07/11 07:30:15;;;;;;;24.70;18.13;;;18.10;99.90;;;;;;5014060;28;20168;-69
2021/07/11 07:32:41;;;;;;;24.27;18.97;;;18.10;99.90;;;;;;5014666;28;20263;-66
2021/07/11 07:35:08;;;;;;;23.77;17.60;;;18.10;99.90;;;;;;5013763;28;20195;-69
2021/07/11 07:37:33;;;;;;;20.53;16.40;;;18.20;99.90;;;;;;5013470;28;20207;-69
2021/07/11 07:40:01;;;;;;;22.57;17.20;;;18.10;99.90;;;;;;5012622;28;20220;-69
2021/07/11 07:42:27;;;;;;;24.47;17.23;;;18.00;99.90;;;;;;5025159;28;20217;-69
2021/07/11 07:44:53;;;;;;;24.63;16.30;;;17.90;99.90;;;;;;5033463;28;20219;-69
2021/07/11 07:47:19;;;;;;;23.57;17.57;;;17.90;99.90;;;;;;5032795;28;20587;-68
2021/07/11 07:49:44;;;;;;;22.20;16.60;;;17.90;99.90;;;;;;5033595;28;20214;-69
2021/07/11 07:52:10;;;;;;;21.30;17.53;;;17.90;99.90;;;;;;5031351;28;20202;-68
2021/07/11 07:54:35;;;;;;;20.47;16.77;;;18.00;99.90;;;;;;5031822;28;20679;-68
2021/07/11 07:57:01;;;;;;;22.07;16.77;;;18.20;99.90;;;;;;5031365;28;20179;-69
2021/07/11 07:59:27;;;;;;;18.13;15.57;;;18.30;99.90;;;;;;5033274;28;20207;-69
2021/07/11 08:01:52;;;;;;;18.63;14.80;;;18.60;99.90;;;;;;5027365;28;20182;-67
2021/07/11 08:04:20;;;;;;;19.60;16.50;;;18.80;99.90;;;;;;5013271;28;20234;-69
2021/07/11 08:06:47;;;;;;;16.63;14.90;;;18.90;99.90;;;;;;5016338;28;20554;-69
2021/07/11 08:09:13;;;;;;;18.33;16.30;;;19.00;99.90;;;;;;5033039;28;20668;-68
2021/07/11 08:11:39;;;;;;;19.67;16.17;;;19.10;99.90;;;;;;5032845;28;20190;-68
2021/07/11 08:14:05;;;;;;;16.30;14.60;;;19.20;99.90;;;;;;5032993;28;20179;-68
2021/07/11 08:16:30;;;;;;;19.27;16.50;;;19.30;99.90;;;;;;5018962;28;20223;-69
2021/07/11 08:18:56;;;;;;;20.93;17.07;;;19.30;99.90;;;;;;5013112;28;20176;-68
2021/07/11 08:21:22;;;;;;;19.20;16.77;;;19.30;99.90;;;;;;5012518;28;20184;-66
2021/07/11 08:23:48;;;;;;;19.07;16.33;;;19.30;99.90;;;;;;5012445;28;20572;-67
2021/07/11 08:26:13;;;;;;;19.87;15.30;;;19.40;99.90;;;;;;5023978;28;20207;-67
2021/07/11 08:28:39;;;;;;;17.17;14.40;;;19.50;99.90;;;;;;5032758;28;20168;-67
2021/07/11 08:31:05;;;;;;;16.07;14.37;;;19.60;99.90;;;;;;5024118;28;20281;-67
2021/07/11 08:33:31;;;;;;;16.97;14.67;;;19.80;99.90;;;;;;5011828;28;20230;-67
2021/07/11 08:35:58;;;;;;;16.35;14.82;;;20.20;99.90;;;;;;5019684;28;20203;-67
2021/07/11 08:38:24;;;;;;;16.47;14.77;;;20.60;99.90;;;;;;5032723;28;20225;-67
2021/07/11 08:40:50;;;;;;;16.77;14.63;;;20.90;99.90;;;;;;5025917;28;20180;-67
2021/07/11 08:43:16;;;;;;;15.88;13.00;;;21.30;99.90;;;;;;5012460;28;22124;-67
2021/07/11 08:45:42;;;;;;;15.70;13.40;;;21.80;99.90;;;;;;5020562;28;20298;-67
2021/07/11 08:48:09;;;;;;;15.27;13.60;;;21.90;99.90;;;;;;5032292;28;20182;-66
2021/07/11 08:50:35;;;;;;;14.20;12.70;;;22.30;99.90;;;;;;5025900;28;20200;-67
2021/07/11 08:53:01;;;;;;;16.58;14.82;;;22.70;99.90;;;;;;5011314;28;20210;-67
2021/07/11 08:55:27;;;;;;;14.15;12.65;;;23.00;99.90;;;;;;5012624;28;20282;-67
2021/07/11 08:57:58;;;;;;;16.42;14.30;;;23.40;99.90;;;;;;5012298;28;20254;-67
2021/07/11 09:00:28;;;;;;;15.32;13.73;;;23.70;99.90;;;;;;5015586;28;20180;-67
2021/07/11 09:02:55;;;;;;;15.32;13.77;;;23.40;99.90;;;;;;5031014;28;20541;-67
2021/07/11 09:05:26;;;;;;;16.13;14.38;;;23.40;99.90;;;;;;5030147;28;20207;-67
2021/07/11 09:08:01;;;;;;;15.98;13.82;;;23.40;99.90;;;;;;5031961;28;20198;-67
2021/07/11 09:10:46;;;;;;;15.18;13.57;;;23.50;99.90;;;;;;5028100;28;20175;-67
2021/07/11 09:13:15;;;;;;;16.00;13.52;;;24.10;99.90;;;;;;5011748;28;20502;-67
2021/07/11 09:15:47;;;;;;;16.40;14.68;;;24.70;99.90;;;;;;5011904;28;20208;-67
2021/07/11 09:18:14;;;;;;;14.60;13.10;;;24.80;99.90;;;;;;5012151;28;20168;-67
2021/07/11 09:21:00;;;;;;;13.30;12.05;;;24.60;99.90;;;;;;5015561;28;20184;-67
2021/07/11 09:23:27;;;;;;;13.02;11.75;;;24.90;99.90;;;;;;5011506;28;20290;-67
2021/07/11 09:25:59;;;;;;;12.15;11.02;;;25.50;99.90;;;;;;5024809;28;20215;-67
2021/07/11 09:28:25;;;;;;;12.13;10.93;;;25.70;99.90;;;;;;5031474;28;20229;-67
2021/07/11 09:31:01;;;;;;;12.25;10.95;;;26.10;99.90;;;;;;5018754;28;20674;-67
2021/07/11 09:33:27;;;;;;;11.23;10.13;;;25.50;99.90;;;;;;5012046;28;20203;-67
2021/07/11 09:36:09;;;;;;;11.18;10.07;;;25.30;99.90;;;;;;5022204;28;20199;-67
2021/07/11 09:38:35;;;;;;;11.15;10.10;;;25.00;99.90;;;;;;5031503;28;20204;-66
2021/07/11 09:41:13;;;;;;;11.85;10.70;;;24.80;99.90;;;;;;5031139;28;20175;-67
2021/07/11 09:43:40;;;;;;;11.55;10.52;;;25.10;99.90;;;;;;5031604;28;20195;-67
2021/07/11 09:46:16;;;;;;;11.77;10.57;;;25.30;99.90;;;;;;5019114;28;20580;-67
2021/07/11 09:48:42;;;;;;;10.88;9.88;;;25.00;99.90;;;;;;5011707;28;20195;-67
2021/07/11 09:51:20;;;;;;;10.10;9.10;;;24.70;99.90;;;;;;5023978;28;20719;-67
2021/07/11 09:53:48;;;;;;;10.48;9.55;;;24.80;99.90;;;;;;5030558;28;20179;-67
2021/07/11 09:56:34;;;;;;;9.77;9.07;;;25.30;99.90;;;;;;5017738;28;20230;-67
2021/07/11 09:59:01;;;;;;;8.65;8.02;;;26.00;99.90;;;;;;5025173;28;20629;-67
2021/07/11 10:01:29;;;;;;;9.75;8.85;;;26.80;99.90;;;;;;5016911;28;20272;-67
2021/07/11 10:03:57;;;;;;;8.80;8.00;;;26.50;99.90;;;;;;5010563;28;20215;-67
2021/07/11 10:06:23;;;;;;;8.52;7.82;;;25.70;99.90;;;;;;5011187;28;20603;-67
2021/07/11 10:08:49;;;;;;;8.88;8.13;;;25.50;99.90;;;;;;5021414;28;20203;-67
2021/07/11 10:11:15;;;;;;;8.93;8.15;;;25.70;99.90;;;;;;5031052;28;20171;-67
2021/07/11 10:13:40;;;;;;;7.60;6.88;;;25.90;99.90;;;;;;5020190;28;20191;-67
2021/07/11 10:16:11;;;;;;;5.97;5.57;;;26.40;99.90;;;;;;5011330;28;20207;-67
2021/07/11 10:18:39;;;;;;;6.00;5.60;;;26.60;99.90;;;;;;5015245;28;20176;-67
2021/07/11 10:21:05;;;;;;;7.07;6.47;;;26.30;99.90;;;;;;5015241;28;20172;-67
2021/07/11 10:23:37;;;;;;;7.18;6.57;;;26.40;99.90;;;;;;5021652;28;20272;-67
2021/07/11 10:26:14;;;;;;;6.65;6.18;;;26.30;99.90;;;;;;5034918;28;20214;-67
2021/07/11 10:28:42;;;;;;;7.20;6.68;;;25.80;99.90;;;;;;5034271;28;20606;-67
2021/07/11 10:31:23;;;;;;;6.43;6.03;;;25.10;99.90;;;;;;5034920;28;20202;-67
2021/07/11 10:33:50;;;;;;;6.55;5.95;;;24.40;99.90;;;;;;5034386;28;20908;-67
2021/07/11 10:36:17;;;;;;;7.10;6.50;;;23.80;99.90;;;;;;5034747;28;20234;-66
2021/07/11 10:38:49;;;;;;;6.22;5.72;;;23.40;99.90;;;;;;5026048;28;20211;-66
2021/07/11 10:41:22;;;;;;;6.68;6.15;;;23.40;99.90;;;;;;5014980;28;20190;-67
2021/07/11 10:44:10;;;;;;;7.55;6.95;;;23.70;99.90;;;;;;5020648;28;20199;-67
2021/07/11 10:46:50;;;;;;;6.10;5.70;;;24.20;99.90;;;;;;5081413;22;20716;-66
2021/07/11 10:49:18;;;;;;;5.80;5.40;;;24.30;99.90;;;;;;5034088;28;20205;-66
2021/07/11 10:51:55;;;;;;;5.90;5.50;;;24.20;99.90;;;;;;5034533;28;20190;-66
2021/07/11 10:54:36;;;;;;;6.53;6.13;;;23.90;99.90;;;;;;5034225;28;20178;-66
2021/07/11 10:57:10;;;;;;;6.20;5.80;;;23.90;99.90;;;;;;5014595;28;20184;-67
2021/07/11 10:59:42;;;;;;;6.55;6.03;;;23.90;99.90;;;;;;5014455;28;20188;-66
2021/07/11 11:02:20;;;;;;;6.93;6.53;;;23.70;99.90;;;;;;5014405;28;20169;-66
2021/07/11 11:04:57;;;;;;;6.15;5.75;;;23.70;99.90;;;;;;5013973;28;20577;-66
2021/07/11 11:07:23;;;;;;;6.60;6.20;;;23.80;99.90;;;;;;5014005;28;20501;-66
2021/07/11 11:09:49;;;;;;;7.25;6.75;;;24.00;99.90;;;;;;5014162;28;20194;-66
2021/07/11 11:12:25;;;;;;;6.65;6.25;;;24.10;99.90;;;;;;5012860;28;20203;-66
2021/07/11 11:14:53;;;;;;;7.35;6.85;;;24.40;99.90;;;;;;5013787;28;20200;-66
2021/07/11 11:17:39;;;;;;;6.22;5.78;;;24.50;99.90;;;;;;5013109;28;20211;-66
2021/07/11 11:20:13;;;;;;;5.93;5.53;;;25.10;99.90;;;;;;5013859;28;20661;-66
2021/07/11 11:22:38;;;;;;;6.18;5.78;;;25.10;99.90;;;;;;5012255;28;20386;-66
2021/07/11 11:25:05;;;;;;;6.15;5.57;;;25.20;99.90;;;;;;5013799;28;20215;-66
2021/07/11 11:27:33;;;;;;;6.13;5.68;;;25.50;99.90;;;;;;5013758;28;20238;-66
2021/07/11 11:30:17;;;;;;;6.30;5.80;;;26.00;99.90;;;;;;5013252;28;20188;-66
2021/07/11 11:32:50;;;;;;;5.50;5.15;;;26.60;99.90;;;;;;5013968;28;20203;-66
2021/07/11 11:35:20;;;;;;;6.10;5.70;;;27.30;99.90;;;;;;5012321;28;20258;-66
2021/07/11 11:37:51;;;;;;;6.43;6.03;;;28.20;99.90;;;;;;5013782;28;20172;-67
2021/07/11 11:40:18;;;;;;;5.63;5.32;;;28.90;99.90;;;;;;5013608;28;20176;-66
2021/07/11 11:42:49;;;;;;;5.55;5.15;;;29.50;99.90;;;;;;5014073;28;20176;-69
2021/07/11 11:45:17;;;;;;;6.10;5.70;;;30.20;99.90;;;;;;5011930;28;20203;-68
2021/07/11 11:47:43;;;;;;;6.25;5.75;;;30.20;99.90;;;;;;5013596;28;20832;-67
2021/07/11 11:50:15;;;;;;;5.63;5.20;;;29.80;99.90;;;;;;5013595;28;20226;-68
2021/07/11 11:52:41;;;;;;;5.68;5.25;;;29.80;99.90;;;;;;5013701;28;20555;-67
2021/07/11 11:55:07;;;;;;;5.40;5.10;;;30.30;99.90;;;;;;5013155;28;20196;-69
2021/07/11 11:57:33;;;;;;;5.20;4.68;;;31.10;99.90;;;;;;5013277;28;20180;-68
2021/07/11 11:59:59;;;;;;;5.20;4.80;;;31.60;99.90;;;;;;5013440;28;20242;-67
2021/07/11 12:02:25;;;;;;;5.85;5.35;;;31.80;99.90;;;;;;5013373;28;20715;-68
2021/07/11 12:04:51;;;;;;;5.47;5.15;;;32.10;99.90;;;;;;5013058;28;20203;-67
2021/07/11 12:07:17;;;;;;;5.90;5.50;;;32.20;99.90;;;;;;5012660;28;20164;-67
2021/07/11 12:09:43;;;;;;;5.43;5.03;;;31.80;99.90;;;;;;5013208;28;20524;-67
2021/07/11 12:12:12;;;;;;;6.63;6.07;;;30.70;99.90;;;;;;5012963;28;20183;-68
2021/07/11 12:14:40;;;;;;;5.18;4.78;;;29.60;99.90;;;;;;5012086;28;20728;-68
2021/07/11 12:17:13;;;;;;;6.88;6.18;;;28.90;99.90;;;;;;5012843;28;20172;-67
2021/07/11 12:19:50;;;;;;;7.55;7.15;;;28.50;99.90;;;;;;5012645;28;20191;-66
2021/07/11 12:22:24;;;;;;;5.93;5.53;;;28.70;99.90;;;;;;5012222;28;20257;-66
2021/07/11 12:25:17;;;;;;;5.95;5.40;;;28.90;99.90;;;;;;4993173;28;20259;-67
2021/07/11 12:27:47;;;;;;;6.65;6.20;;;28.50;99.90;;;;;;5006542;28;20246;-67
2021/07/11 12:30:16;;;;;;;5.88;5.53;;;28.70;99.90;;;;;;5012846;28;20187;-67
2021/07/11 12:32:44;;;;;;;6.47;5.93;;;28.40;99.90;;;;;;5012785;28;20180;-68
2021/07/11 12:35:10;;;;;;;5.10;4.78;;;28.80;99.90;;;;;;5012559;28;20188;-68
2021/07/11 12:38:05;;;;;;;7.38;6.95;;;29.00;99.90;;;;;;5011032;28;20271;-68
2021/07/11 12:40:33;;;;;;;5.80;5.40;;;28.80;99.90;;;;;;5011828;28;20177;-68
2021/07/11 12:43:06;;;;;;;6.82;6.40;;;27.90;99.90;;;;;;5012491;28;20704;-67
2021/07/11 12:45:33;;;;;;;6.57;6.18;;;27.10;99.90;;;;;;5012180;28;20242;-67